Rochdale, United Kingdom
Current Conditions -  °F | °C
As of 10:20 AM on Saturday 25 Oct 2014 (Local Time) from EGCC Reporting Station
Drizzle Drizzle  
Wind Chill: 50°   Ceiling: 2800
Heat Index: 50°   Visibility: 6mi
Dew Point: 48°   Wind: 13mph
Humidity: 94%   Direction: 190°S
Pressure: 29.94"   Gusts: NA
Location:  53.62°N, 2.17°W
Report Text: EGCC 250920Z 19011KT 9999 4000NW -DZ FEW015 BKN028 10/09 Q1014 NOSIG
Loading
Personal Weather Stations






























Interactive Weather Map
Tropical Storm Tracking
New forecast layout! Learn more

10-Day Weather Forecast

Advertisements
Track Severe Weather on mobile